Latest Weather Observations for Maria Island

IDT60801

Issued at 6:32 am EST Friday 23 June 2017 (issued every 30 minutes, with the page automatically refreshed every 10 minutes)

About weather observations | Map of weather stations | Latest weather observations for TAS | Other Formats
Station Details ID: 092124 Name: MARIA ISLAND (POINT LESUEUR) Lat: -42.66 Lon: 148.02 Height: 28.0 m
Data from the previous 72 hours. | See also: Recent months at Maria Island
Date/Time
EST
Temp
°C
App
Temp
°C
Dew
Point
°C
Rel
Hum
%
Delta-T
°C
Wind Press
QNH
hPa
Press
MSL
hPa
Rain since
9am
mm
Dir  Spd
km/h
Gust
km/h
Spd
kts
Gust
kts
23/06:30am 11.0 3.7 7.3 78 1.8 N 35 41 19 22 1008.5 1008.5 0.0
23/06:00am 10.7 3.9 6.8 77 1.8 N 32 37 17 20 1008.6 1008.6 0.0
23/05:30am 10.5 3.2 7.0 79 1.7 N 35 41 19 22 1009.1 1009.1 0.0
23/05:00am 10.0 3.9 6.5 79 1.6 N 28 37 15 20 1009.7 1009.7 0.0
23/04:30am 9.5 5.0 6.0 79 1.6 NNW 19 24 10 13 1010.5 1010.5 0.0
23/04:00am 9.1 5.4 6.2 82 1.3 NNW 15 19 8 10 1011.1 1011.1 0.0
23/03:30am 8.7 5.5 5.3 79 1.5 NNW 11 15 6 8 1011.7 1011.7 0.0
23/03:00am 8.6 4.2 5.0 78 1.6 N 17 20 9 11 1012.5 1012.5 0.0
23/02:30am 7.8 4.9 4.6 80 1.4 WNW 9 13 5 7 1013.1 1013.1 0.0
23/02:00am 7.9 3.5 4.8 81 1.4 NW 17 22 9 12 1013.5 1013.5 0.0
23/01:30am 8.4 2.8 5.2 80 1.4 NNW 24 35 13 19 1013.8 1013.8 0.0
23/01:00am 8.5 2.8 4.9 78 1.6 N 24 28 13 15 1014.1 1014.1 0.0
23/12:30am 7.9 3.5 4.5 79 1.5 NNW 17 20 9 11 1014.6 1014.6 0.0
23/12:00am 7.7 3.9 4.1 78 1.6 NW 13 17 7 9 1015.3 1015.3 0.0
 
Date/Time
EST
Temp
°C
App
Temp
°C
Dew
Point
°C
Rel
Hum
%
Delta-T
°C
Wind Press
QNH
hPa
Press
MSL
hPa
Rain since
9am
mm
Dir  Spd
km/h
Gust
km/h
Spd
kts
Gust
kts
22/11:30pm 7.3 3.8 3.7 78 1.5 NW 11 15 6 8 1015.9 1015.9 0.0
22/11:00pm 7.9 3.3 3.9 76 1.7 NNW 17 20 9 11 1016.3 1016.3 0.0
22/10:30pm 7.9 3.0 3.9 76 1.7 NNW 19 24 10 13 1016.6 1016.6 0.0
22/10:00pm 8.1 2.9 3.6 73 1.9 NNW 20 30 11 16 1017.0 1017.0 0.0
22/09:30pm 8.7 1.7 3.9 72 2.1 N 30 35 16 19 1017.2 1017.2 0.0
22/09:00pm 8.7 1.6 3.3 69 2.3 N 30 37 16 20 1017.2 1017.2 0.0
22/08:30pm 8.6 1.5 3.4 70 2.2 N 30 33 16 18 1017.5 1017.5 0.0
22/08:00pm 8.6 2.5 2.6 66 2.5 N 24 28 13 15 1018.0 1018.0 0.0
22/07:30pm 8.5 3.1 2.5 66 2.5 NNW 20 26 11 14 1018.4 1018.4 0.0
22/07:00pm 8.5 2.4 2.9 68 2.4 NNW 24 28 13 15 1018.8 1018.8 0.0
22/06:30pm 8.6 2.1 2.8 67 2.5 NNW 26 30 14 16 1018.8 1018.8 0.0
22/06:00pm 8.8 1.9 2.8 66 2.5 NNW 28 33 15 18 1019.0 1019.0 0.0
22/05:30pm 9.2 2.8 3.0 65 2.7 NNW 26 32 14 17 1019.4 1019.4 0.0
22/05:00pm 9.5 3.5 3.3 65 2.7 NNW 24 28 13 15 1019.8 1019.8 0.0
22/04:30pm 9.7 2.9 3.0 63 2.9 NNW 28 32 15 17 1019.9 1019.9 0.0
22/04:00pm 10.2 4.9 2.8 60 3.2 N 20 26 11 14 1019.8 1019.8 0.0
22/03:30pm 10.4 4.0 3.2 61 3.1 NNW 26 28 14 15 1020.1 1020.1 0.0
22/03:00pm 11.2 6.1 3.0 57 3.6 NW 19 22 10 12 1020.6 1020.6 0.0
22/02:30pm 11.2 5.9 2.8 56 3.6 NNW 20 30 11 16 1020.8 1020.8 0.0
22/02:00pm 11.1 4.7 3.2 58 3.4 NNW 26 30 14 16 1021.1 1021.1 0.0
22/01:30pm 11.6 3.4 2.9 55 3.8 NNW 35 43 19 23 1021.4 1021.4 0.0
22/01:00pm 11.6 3.1 3.1 56 3.7 NNW 37 44 20 24 1021.9 1021.9 0.0
22/12:30pm 11.5 6.0 4.0 60 3.4 NNW 22 32 12 17 1022.7 1022.8 0.0
22/12:00pm 10.8 6.4 4.5 65 2.8 N 17 20 9 11 1023.4 1023.5 0.0
22/11:30am 10.0 5.9 4.2 67 2.6 NNW 15 17 8 9 1023.9 1024.0 0.0
22/11:00am 9.3 5.2 4.1 70 2.3 NNW 15 17 8 9 1024.5 1024.6 0.0
22/10:30am 8.4 4.2 3.7 72 2.0 N 15 19 8 10 1024.8 1024.9 0.0
22/10:00am 8.3 3.5 2.8 68 2.3 NNW 17 19 9 10 1025.4 1025.5 0.0
22/09:30am 7.9 3.5 2.6 69 2.2 NNW 15 17 8 9 1025.7 1025.8 0.0
22/09:00am 7.5 3.5 2.6 71 2.0 NNW 13 17 7 9 1025.8 1025.9 0.0
22/08:30am 7.3 4.4 2.6 72 2.0 N 7 13 4 7 1026.0 1026.1 0.0
22/08:00am 6.7 3.8 2.6 75 1.7 WNW 7 11 4 6 1026.4 1026.5 0.0
22/07:30am 7.0 3.3 2.1 71 2.0 N 11 15 6 8 1026.6 1026.7 0.0
22/07:00am 7.0 3.5 3.3 77 1.6 N 11 13 6 7 1026.5 1026.6 0.0
22/06:30am 6.4 3.2 2.9 78 1.5 NW 9 13 5 7 1026.8 1026.9 0.0
22/06:00am 6.2 3.3 2.8 79 1.4 NW 7 11 4 6 1026.8 1026.9 0.0
22/05:30am 6.0 3.3 2.6 79 1.4 NW 6 9 3 5 1026.8 1026.9 0.0
22/05:00am 6.1 3.8 2.6 78 1.4 NW 4 6 2 3 1027.0 1027.1 0.0
22/04:30am 6.1 4.0 3.9 86 0.9 N 4 6 2 3 1027.0 1027.1 0.0
22/04:00am 6.1 4.0 3.8 85 1.0 NNW 4 7 2 4 1027.3 1027.4 0.0
22/03:30am 5.3 2.7 3.0 85 0.9 NNW 6 11 3 6 1027.5 1027.6 0.0
22/03:00am 5.3 3.0 2.8 84 1.0 N 4 6 2 3 1027.7 1027.8 0.0
22/02:30am 6.1 3.9 3.1 81 1.2 NNW 4 6 2 3 1028.0 1028.1 0.0
22/02:00am 5.1 1.4 2.3 82 1.1 WNW 11 13 6 7 1028.2 1028.3 0.0
22/01:30am 5.1 1.4 2.6 84 1.0 WNW 11 15 6 8 1028.2 1028.3 0.0
22/01:00am 6.1 2.5 2.9 80 1.3 WNW 11 15 6 8 1028.3 1028.4 0.0
22/12:30am 6.2 2.1 2.5 77 1.5 WNW 13 15 7 8 1028.5 1028.6 0.0
22/12:00am 6.2 2.1 2.5 77 1.5 WNW 13 13 7 7 1028.6 1028.7 0.0
 
Date/Time
EST
Temp
°C
App
Temp
°C
Dew
Point
°C
Rel
Hum
%
Delta-T
°C
Wind Press
QNH
hPa
Press
MSL
hPa
Rain since
9am
mm
Dir  Spd
km/h
Gust
km/h
Spd
kts
Gust
kts
21/11:30pm 6.5 3.2 2.6 76 1.6 WNW 9 11 5 6 1028.7 1028.8 0.0
21/11:00pm 6.0 2.4 2.8 80 1.3 WNW 11 11 6 6 1028.9 1029.0 0.0
21/10:30pm 5.7 2.9 2.2 78 1.4 NNE 6 7 3 4 1028.8 1028.9 0.0
21/10:00pm 7.0 5.1 2.9 75 1.7 NNE 2 4 1 2 1028.9 1029.0 0.0
21/09:30pm 7.2 4.2 1.7 68 2.2 NW 7 9 4 5 1028.8 1028.9 0.0
21/09:00pm 7.3 3.9 1.6 67 2.3 WNW 9 11 5 6 1028.8 1028.9 0.0
21/08:30pm 7.6 4.2 1.9 67 2.3 W 9 11 5 6 1028.8 1028.9 0.0
21/08:00pm 8.2 4.4 2.0 65 2.5 WSW 11 19 6 10 1028.8 1028.9 0.0
21/07:30pm 7.1 4.1 3.9 80 1.4 W 9 11 5 6 1028.7 1028.8 0.0
21/07:00pm 7.3 4.6 3.9 79 1.4 WNW 7 9 4 5 1028.4 1028.5 0.0
21/06:30pm 7.5 4.3 3.0 73 1.9 WNW 9 13 5 7 1028.1 1028.2 0.0
21/06:00pm 7.9 4.8 3.4 73 1.9 W 9 11 5 6 1027.8 1027.9 0.0
21/05:30pm 8.6 5.5 3.4 70 2.2 W 9 11 5 6 1027.5 1027.6 0.0
21/05:00pm 9.1 5.5 0.6 55 3.4 SW 9 11 5 6 1027.2 1027.3 0.0
21/04:30pm 9.0 5.1 1.2 58 3.2 WSW 11 13 6 7 1026.8 1026.9 0.0
21/04:00pm 9.6 4.5 0.8 54 3.6 WSW 17 19 9 10 1026.6 1026.7 0.0
21/03:30pm 10.3 6.4 1.2 53 3.8 SW 11 17 6 9 1026.4 1026.5 0.0
21/03:00pm 10.0 4.5 0.9 53 3.7 WSW 19 24 10 13 1026.0 1026.1 0.0
21/02:30pm 10.2 5.4 0.0 49 4.1 SW 15 20 8 11 1025.7 1025.8 0.0
21/02:00pm 10.2 6.2 0.3 50 4.0 WSW 11 17 6 9 1025.7 1025.8 0.0
21/01:30pm 10.9 7.4 1.2 51 4.0 W 9 15 5 8 1025.6 1025.7 0.0
21/01:00pm 10.6 5.6 1.2 52 3.9 WSW 17 20 9 11 1025.5 1025.6 0.0
21/12:30pm 10.4 4.8 1.5 54 3.7 SW 20 28 11 15 1025.4 1025.5 0.0
21/12:00pm 10.1 2.5 0.7 52 3.8 SW 30 41 16 22 1025.4 1025.5 0.0
21/11:30am 10.3 4.8 0.3 50 4.1 WSW 19 30 10 16 1025.3 1025.4 0.0
21/11:00am 9.8 4.3 1.7 57 3.4 W 20 30 11 16 1025.3 1025.4 0.0
21/10:30am 9.4 3.4 1.3 57 3.3 WSW 22 28 12 15 1025.3 1025.4 0.0
21/10:00am 9.4 4.0 2.5 62 2.9 WSW 20 30 11 16 1025.1 1025.2 0.0
21/09:30am 8.6 4.8 2.0 63 2.7 W 11 15 6 8 1024.8 1024.9 0.0
21/09:00am 8.7 4.6 2.1 63 2.7 WNW 13 19 7 10 1024.2 1024.3 0.4
21/08:30am 8.2 3.2 1.4 62 2.8 W 17 20 9 11 1023.6 1023.7 0.4
21/08:00am 8.0 3.7 1.2 62 2.7 WSW 13 20 7 11 1023.3 1023.4 0.4
21/07:30am 8.4 2.9 2.0 64 2.7 WSW 20 24 11 13 1022.7 1022.8 0.4
21/07:00am 8.2 3.5 1.1 61 2.9 W 15 20 8 11 1021.9 1021.9 0.4
21/06:30am 8.4 3.4 1.3 61 2.9 W 17 20 9 11 1021.1 1021.1 0.4
21/06:00am 8.8 3.5 1.7 61 2.9 WSW 19 26 10 14 1020.2 1020.2 0.4
21/05:30am 9.0 3.4 1.2 58 3.2 WSW 20 24 11 13 1019.7 1019.7 0.4
21/05:00am 9.2 3.7 0.9 56 3.4 WSW 19 26 10 14 1019.5 1019.5 0.4
21/04:30am 9.4 3.0 0.8 55 3.5 W 24 30 13 16 1018.8 1018.8 0.4
21/04:00am 9.5 3.1 0.9 55 3.5 W 24 33 13 18 1018.3 1018.3 0.4
21/03:30am 9.8 4.0 0.2 51 3.9 WSW 20 28 11 15 1018.2 1018.2 0.4
21/03:07am 10.1 1.8 -0.1 49 4.1 W 33 52 18 28 1017.4 1017.4 0.4
21/03:00am 10.2 1.9 0.0 49 4.1 W 33 41 18 22 1017.2 1017.2 0.4
21/02:30am 10.5 3.2 0.0 48 4.2 WSW 28 43 15 23 1017.1 1017.1 0.4
21/02:00am 10.4 2.9 1.2 53 3.8 SW 30 48 16 26 1017.0 1017.0 0.4
21/01:36am 10.6 2.9 2.4 57 3.5 W 32 52 17 28 1016.0 1016.0 0.4
21/01:30am 10.7 2.8 2.3 56 3.6 WSW 33 52 18 28 1015.6 1015.6 0.4
21/01:03am 11.1 3.4 3.4 59 3.4 WSW 33 63 18 34 1015.1 1015.1 0.4
21/01:00am 11.2 3.7 3.5 59 3.4 WSW 32 46 17 25 1015.1 1015.1 0.4
21/12:30am 11.4 6.0 4.4 62 3.2 WSW 22 35 12 19 1014.8 1014.8 0.4
21/12:15am 11.8 6.4 4.5 61 3.3 SW 22 52 12 28 1014.5 1014.5 0.4
21/12:00am 11.9 9.5 5.1 63 3.1 SW 7 15 4 8 1014.4 1014.4 0.4
 
Date/Time
EST
Temp
°C
App
Temp
°C
Dew
Point
°C
Rel
Hum
%
Delta-T
°C
Wind Press
QNH
hPa
Press
MSL
hPa
Rain since
9am
mm
Dir  Spd
km/h
Gust
km/h
Spd
kts
Gust
kts
20/11:30pm 11.9 9.6 5.5 65 3.0 WSW 7 17 4 9 1014.0 1014.0 0.4
20/11:00pm 12.2 8.9 6.5 68 2.7 WSW 13 20 7 11 1013.8 1013.8 0.4
20/10:30pm 12.3 6.7 7.0 70 2.5 WSW 26 35 14 19 1013.2 1013.2 0.4
20/10:00pm 12.3 5.3 8.4 77 1.9 WSW 35 54 19 29 1012.5 1012.5 0.4
20/09:57pm 12.4 6.3 8.3 76 2.0 WSW 30 46 16 25 1012.6 1012.6 0.4
20/09:30pm 13.5 9.1 8.8 73 2.4 NW 22 28 12 15 1011.7 1011.7 0.0
20/09:28pm 13.5 9.1 9.0 74 2.3 NW 22 28 12 15 1011.5 1011.5 0.0
20/09:00pm 13.7 6.3 8.5 71 2.6 NNW 37 48 20 26 1010.4 1010.4 0.0
20/08:30pm 13.8 5.3 8.6 71 2.6 N 43 54 23 29 1010.1 1010.1 0.0
20/08:00pm 13.8 3.6 8.6 71 2.6 N 52 63 28 34 1009.1 1009.1 0.0
20/07:30pm 13.7 2.8 8.7 72 2.5 N 56 69 30 37 1009.0 1009.0 0.0
20/07:00pm 13.5 3.0 8.8 73 2.4 N 54 67 29 36 1009.5 1009.5 0.0
20/06:30pm 13.5 3.4 8.8 73 2.4 N 52 61 28 33 1010.6 1010.6 0.0
20/06:00pm 13.7 5.1 8.7 72 2.5 N 44 56 24 30 1011.0 1011.0 0.0
20/05:30pm 13.7 4.6 8.5 71 2.6 N 46 54 25 29 1011.6 1011.6 0.0
20/05:00pm 13.9 4.4 8.5 70 2.7 N 48 59 26 32 1012.1 1012.1 0.0
20/04:30pm 14.0 4.9 8.4 69 2.8 N 46 57 25 31 1012.3 1012.3 0.0
20/04:00pm 14.1 6.0 8.5 69 2.8 N 41 50 22 27 1012.7 1012.7 0.0
20/03:30pm 14.4 6.3 8.8 69 2.8 NNW 41 46 22 25 1013.1 1013.1 0.0
20/03:00pm 14.8 6.9 9.2 69 2.9 NNW 41 46 22 25 1013.5 1013.5 0.0
20/02:30pm 15.0 6.5 9.4 69 2.9 NNW 44 50 24 27 1013.3 1013.3 0.0
20/02:00pm 15.6 8.4 9.1 65 3.3 NNW 37 44 20 24 1013.7 1013.7 0.0
20/01:30pm 15.1 7.5 9.2 68 3.0 NNW 39 46 21 25 1014.1 1014.1 0.0
20/01:00pm 14.5 6.5 9.1 70 2.8 NNW 41 46 22 25 1014.5 1014.5 0.0
20/12:30pm 14.5 7.6 8.9 69 2.8 NNW 35 43 19 23 1015.0 1015.0 0.0
20/12:00pm 14.0 7.6 8.4 69 2.8 N 32 39 17 21 1016.0 1016.0 0.0
20/11:30am 13.6 6.2 8.2 70 2.7 N 37 41 20 22 1016.3 1016.3 0.0
20/11:00am 13.0 6.6 8.5 74 2.2 NNW 32 35 17 19 1017.1 1017.1 0.0
20/10:30am 12.7 6.0 8.2 74 2.2 N 33 37 18 20 1017.8 1017.8 0.0
20/10:00am 12.3 5.7 8.4 77 1.9 N 33 37 18 20 1018.0 1018.0 0.0
20/09:30am 11.7 6.3 7.8 77 1.9 N 26 30 14 16 1018.8 1018.8 0.0
20/09:00am 11.5 7.2 8.0 79 1.7 N 20 24 11 13 1019.3 1019.3 0.0
20/08:30am 10.9 6.8 7.8 81 1.5 NNW 19 20 10 11 1019.8 1019.8 0.0
20/08:00am 10.9 6.8 7.8 81 1.5 NNW 19 22 10 12 1019.9 1019.9 0.0
20/07:30am 10.9 6.5 7.6 80 1.6 NNW 20 28 11 15 1019.9 1019.9 0.0
20/07:00am 10.8 6.5 7.7 81 1.5 NNW 20 26 11 14 1020.1 1020.1 0.0

Other Formats:

Comma delimited format used in spreadsheet applications
http://www.bom.gov.au/fwo/IDT60801/IDT60801.95988.axf

JavaScript Object Notation format (JSON) in row-major order
http://www.bom.gov.au/fwo/IDT60801/IDT60801.95988.json